sensor_id;sensor_type;location;lat;lon;timestamp;pressure;altitude;pressure_sealevel;temperature;humidity
55066;BME280;40964;42.114;24.220;2023-03-04T00:01:31;97907.59;;;4.62;100.00
55066;BME280;40964;42.114;24.220;2023-03-04T00:03:56;97901.34;;;4.48;100.00
55066;BME280;40964;42.114;24.220;2023-03-04T00:06:22;97904.31;;;4.45;100.00
55066;BME280;40964;42.114;24.220;2023-03-04T00:08:47;97903.56;;;4.60;100.00
55066;BME280;40964;42.114;24.220;2023-03-04T00:11:14;97888.19;;;4.65;100.00
55066;BME280;40964;42.114;24.220;2023-03-04T00:13:40;97889.09;;;4.72;100.00
55066;BME280;40964;42.114;24.220;2023-03-04T00:16:06;97896.63;;;4.67;100.00
55066;BME280;40964;42.114;24.220;2023-03-04T00:18:31;97898.34;;;4.74;100.00
55066;BME280;40964;42.114;24.220;2023-03-04T00:20:56;97898.75;;;4.86;100.00
55066;BME280;40964;42.114;24.220;2023-03-04T00:23:22;97894.34;;;4.87;100.00
55066;BME280;40964;42.114;24.220;2023-03-04T00:25:47;97893.63;;;4.93;100.00
55066;BME280;40964;42.114;24.220;2023-03-04T00:28:13;97895.81;;;5.04;100.00
55066;BME280;40964;42.114;24.220;2023-03-04T00:30:38;97895.00;;;5.03;100.00
55066;BME280;40964;42.114;24.220;2023-03-04T00:33:04;97892.19;;;4.90;100.00
55066;BME280;40964;42.114;24.220;2023-03-04T00:35:29;97900.19;;;4.89;100.00
55066;BME280;40964;42.114;24.220;2023-03-04T00:37:54;97908.88;;;4.81;100.00
55066;BME280;40964;42.114;24.220;2023-03-04T00:40:20;97899.38;;;4.88;100.00
55066;BME280;40964;42.114;24.220;2023-03-04T00:42:45;97901.53;;;4.99;100.00
55066;BME280;40964;42.114;24.220;2023-03-04T00:45:11;97907.13;;;5.11;100.00
55066;BME280;40964;42.114;24.220;2023-03-04T00:47:36;97905.31;;;5.11;100.00
55066;BME280;40964;42.114;24.220;2023-03-04T00:50:02;97907.94;;;5.11;100.00
55066;BME280;40964;42.114;24.220;2023-03-04T00:52:28;97897.97;;;5.15;100.00
55066;BME280;40964;42.114;24.220;2023-03-04T00:54:53;97890.41;;;5.20;100.00
55066;BME280;40964;42.114;24.220;2023-03-04T00:57:19;97895.47;;;5.22;100.00
55066;BME280;40964;42.114;24.220;2023-03-04T00:59:44;97889.88;;;5.25;100.00
55066;BME280;40964;42.114;24.220;2023-03-04T01:02:11;97892.66;;;5.23;100.00
55066;BME280;40964;42.114;24.220;2023-03-04T01:04:36;97893.91;;;5.27;100.00
55066;BME280;40964;42.114;24.220;2023-03-04T01:07:02;97886.00;;;5.21;100.00
55066;BME280;40964;42.114;24.220;2023-03-04T01:09:28;97891.94;;;5.15;100.00
55066;BME280;40964;42.114;24.220;2023-03-04T01:11:53;97887.34;;;5.17;100.00
55066;BME280;40964;42.114;24.220;2023-03-04T01:14:19;97874.84;;;5.12;100.00
55066;BME280;40964;42.114;24.220;2023-03-04T01:16:44;97873.34;;;5.18;100.00
55066;BME280;40964;42.114;24.220;2023-03-04T01:19:10;97871.81;;;5.23;100.00
55066;BME280;40964;42.114;24.220;2023-03-04T01:21:36;97857.25;;;5.14;100.00
55066;BME280;40964;42.114;24.220;2023-03-04T01:24:01;97859.94;;;5.21;100.00
55066;BME280;40964;42.114;24.220;2023-03-04T01:26:28;97865.50;;;5.32;100.00
55066;BME280;40964;42.114;24.220;2023-03-04T01:28:53;97857.59;;;5.40;100.00
55066;BME280;40964;42.114;24.220;2023-03-04T01:31:19;97867.84;;;5.42;100.00
55066;BME280;40964;42.114;24.220;2023-03-04T01:33:45;97863.44;;;5.43;100.00
55066;BME280;40964;42.114;24.220;2023-03-04T01:36:11;97843.09;;;5.38;100.00
55066;BME280;40964;42.114;24.220;2023-03-04T01:38:36;97859.31;;;5.48;100.00
55066;BME280;40964;42.114;24.220;2023-03-04T01:41:02;97863.16;;;5.52;100.00
55066;BME280;40964;42.114;24.220;2023-03-04T01:43:29;97856.84;;;5.47;100.00
55066;BME280;40964;42.114;24.220;2023-03-04T01:45:56;97849.50;;;5.50;100.00
55066;BME280;40964;42.114;24.220;2023-03-04T01:48:28;97851.09;;;5.51;100.00
55066;BME280;40964;42.114;24.220;2023-03-04T01:50:54;97848.03;;;5.48;100.00
55066;BME280;40964;42.114;24.220;2023-03-04T01:53:25;97845.00;;;5.44;100.00
55066;BME280;40964;42.114;24.220;2023-03-04T01:56:10;97851.19;;;5.43;100.00
55066;BME280;40964;42.114;24.220;2023-03-04T01:58:36;97842.56;;;5.43;100.00
55066;BME280;40964;42.114;24.220;2023-03-04T02:01:01;97863.25;;;5.59;100.00
55066;BME280;40964;42.114;24.220;2023-03-04T02:03:27;97850.00;;;5.60;100.00
55066;BME280;40964;42.114;24.220;2023-03-04T02:05:54;97857.47;;;5.63;100.00
55066;BME280;40964;42.114;24.220;2023-03-04T02:08:22;97863.44;;;5.57;100.00
55066;BME280;40964;42.114;24.220;2023-03-04T02:10:48;97852.16;;;5.57;100.00
55066;BME280;40964;42.114;24.220;2023-03-04T02:13:15;97853.59;;;5.59;100.00
55066;BME280;40964;42.114;24.220;2023-03-04T02:15:41;97842.59;;;5.64;100.00
55066;BME280;40964;42.114;24.220;2023-03-04T02:18:20;97843.22;;;5.66;100.00
55066;BME280;40964;42.114;24.220;2023-03-04T02:23:58;97840.97;;;5.78;100.00
55066;BME280;40964;42.114;24.220;2023-03-04T02:26:29;97837.38;;;5.79;100.00
55066;BME280;40964;42.114;24.220;2023-03-04T02:28:57;97826.94;;;5.79;100.00
55066;BME280;40964;42.114;24.220;2023-03-04T02:31:27;97821.91;;;5.77;100.00
55066;BME280;40964;42.114;24.220;2023-03-04T02:33:57;97815.41;;;5.73;100.00
55066;BME280;40964;42.114;24.220;2023-03-04T02:36:23;97821.28;;;5.75;100.00
55066;BME280;40964;42.114;24.220;2023-03-04T02:38:50;97821.81;;;5.70;100.00
55066;BME280;40964;42.114;24.220;2023-03-04T02:41:19;97817.03;;;5.74;100.00
55066;BME280;40964;42.114;24.220;2023-03-04T02:43:47;97828.09;;;5.76;100.00
55066;BME280;40964;42.114;24.220;2023-03-04T02:46:13;97828.34;;;5.81;100.00
55066;BME280;40964;42.114;24.220;2023-03-04T02:48:39;97820.44;;;5.75;100.00
55066;BME280;40964;42.114;24.220;2023-03-04T02:51:04;97835.25;;;5.67;100.00
55066;BME280;40964;42.114;24.220;2023-03-04T02:53:30;97840.59;;;5.30;100.00
55066;BME280;40964;42.114;24.220;2023-03-04T02:55:55;97845.75;;;5.08;100.00
55066;BME280;40964;42.114;24.220;2023-03-04T02:58:21;97852.31;;;5.04;100.00
55066;BME280;40964;42.114;24.220;2023-03-04T03:00:46;97851.22;;;4.99;100.00
55066;BME280;40964;42.114;24.220;2023-03-04T03:03:12;97854.88;;;4.75;100.00
55066;BME280;40964;42.114;24.220;2023-03-04T03:05:38;97854.06;;;4.74;100.00
55066;BME280;40964;42.114;24.220;2023-03-04T03:08:04;97852.28;;;4.75;100.00
55066;BME280;40964;42.114;24.220;2023-03-04T03:10:29;97863.78;;;4.80;100.00
55066;BME280;40964;42.114;24.220;2023-03-04T03:12:55;97856.34;;;4.77;100.00
55066;BME280;40964;42.114;24.220;2023-03-04T03:15:21;97859.38;;;4.81;100.00
55066;BME280;40964;42.114;24.220;2023-03-04T03:17:47;97858.75;;;4.79;100.00
55066;BME280;40964;42.114;24.220;2023-03-04T03:20:14;97863.06;;;4.72;100.00
55066;BME280;40964;42.114;24.220;2023-03-04T03:22:40;97861.88;;;4.60;100.00
55066;BME280;40964;42.114;24.220;2023-03-04T03:25:06;97863.75;;;4.51;100.00
55066;BME280;40964;42.114;24.220;2023-03-04T03:27:32;97855.38;;;4.41;100.00
55066;BME280;40964;42.114;24.220;2023-03-04T03:29:58;97844.94;;;4.41;100.00
55066;BME280;40964;42.114;24.220;2023-03-04T03:32:24;97860.84;;;4.46;100.00
55066;BME280;40964;42.114;24.220;2023-03-04T03:34:49;97855.53;;;4.39;100.00
55066;BME280;40964;42.114;24.220;2023-03-04T03:37:15;97845.81;;;4.33;100.00
55066;BME280;40964;42.114;24.220;2023-03-04T03:39:40;97849.16;;;4.42;100.00
55066;BME280;40964;42.114;24.220;2023-03-04T03:42:06;97858.41;;;4.44;100.00
55066;BME280;40964;42.114;24.220;2023-03-04T03:44:32;97847.38;;;4.42;100.00
55066;BME280;40964;42.114;24.220;2023-03-04T03:46:57;97845.91;;;4.40;100.00
55066;BME280;40964;42.114;24.220;2023-03-04T03:49:23;97845.91;;;4.40;100.00
55066;BME280;40964;42.114;24.220;2023-03-04T03:51:48;97847.75;;;4.54;100.00
55066;BME280;40964;42.114;24.220;2023-03-04T03:54:14;97846.94;;;4.53;100.00
55066;BME280;40964;42.114;24.220;2023-03-04T03:56:39;97847.94;;;4.52;100.00
55066;BME280;40964;42.114;24.220;2023-03-04T03:59:05;97851.16;;;4.54;100.00
55066;BME280;40964;42.114;24.220;2023-03-04T04:01:30;97845.69;;;4.49;100.00
55066;BME280;40964;42.114;24.220;2023-03-04T04:03:58;97842.78;;;4.44;100.00
55066;BME280;40964;42.114;24.220;2023-03-04T04:06:24;97844.97;;;4.55;100.00
55066;BME280;40964;42.114;24.220;2023-03-04T04:08:49;97846.31;;;4.66;100.00
55066;BME280;40964;42.114;24.220;2023-03-04T04:11:15;97847.13;;;4.67;100.00
55066;BME280;40964;42.114;24.220;2023-03-04T04:13:41;97847.50;;;4.64;100.00
55066;BME280;40964;42.114;24.220;2023-03-04T04:16:06;97848.13;;;4.66;100.00
55066;BME280;40964;42.114;24.220;2023-03-04T04:18:32;97849.59;;;4.68;100.00
55066;BME280;40964;42.114;24.220;2023-03-04T04:20:57;97848.78;;;4.68;100.00
55066;BME280;40964;42.114;24.220;2023-03-04T04:23:23;97853.81;;;4.69;100.00
55066;BME280;40964;42.114;24.220;2023-03-04T04:25:48;97852.53;;;4.65;100.00
55066;BME280;40964;42.114;24.220;2023-03-04T04:28:14;97844.44;;;4.60;100.00
55066;BME280;40964;42.114;24.220;2023-03-04T04:30:39;97847.06;;;4.60;100.00
55066;BME280;40964;42.114;24.220;2023-03-04T04:33:05;97848.19;;;4.57;100.00
55066;BME280;40964;42.114;24.220;2023-03-04T04:35:32;97842.03;;;4.59;100.00
55066;BME280;40964;42.114;24.220;2023-03-04T04:37:58;97848.13;;;4.66;100.00
55066;BME280;40964;42.114;24.220;2023-03-04T04:40:24;97848.22;;;4.72;100.00
55066;BME280;40964;42.114;24.220;2023-03-04T04:42:49;97846.50;;;4.65;100.00
55066;BME280;40964;42.114;24.220;2023-03-04T04:45:15;97836.72;;;4.67;100.00
55066;BME280;40964;42.114;24.220;2023-03-04T04:47:40;97852.13;;;4.76;100.00
55066;BME280;40964;42.114;24.220;2023-03-04T04:50:06;97852.28;;;4.75;100.00
55066;BME280;40964;42.114;24.220;2023-03-04T04:52:32;97845.25;;;4.75;100.00
55066;BME280;40964;42.114;24.220;2023-03-04T04:54:57;97844.19;;;4.84;100.00
55066;BME280;40964;42.114;24.220;2023-03-04T04:57:23;97847.34;;;4.80;100.00
55066;BME280;40964;42.114;24.220;2023-03-04T04:59:48;97849.88;;;4.88;100.00
55066;BME280;40964;42.114;24.220;2023-03-04T05:02:14;97854.53;;;4.78;100.00
55066;BME280;40964;42.114;24.220;2023-03-04T05:04:39;97842.56;;;4.83;100.00
55066;BME280;40964;42.114;24.220;2023-03-04T05:07:05;97848.69;;;4.91;100.00
55066;BME280;40964;42.114;24.220;2023-03-04T05:09:30;97851.31;;;4.91;100.00
55066;BME280;40964;42.114;24.220;2023-03-04T05:11:56;97841.44;;;4.86;100.00
55066;BME280;40964;42.114;24.220;2023-03-04T05:14:21;97852.47;;;4.88;100.00
55066;BME280;40964;42.114;24.220;2023-03-04T05:16:47;97856.06;;;4.87;100.00
55066;BME280;40964;42.114;24.220;2023-03-04T05:19:12;97851.66;;;4.88;100.00
55066;BME280;40964;42.114;24.220;2023-03-04T05:21:38;97843.31;;;4.92;100.00
55066;BME280;40964;42.114;24.220;2023-03-04T05:24:03;97842.41;;;4.85;100.00
55066;BME280;40964;42.114;24.220;2023-03-04T05:26:29;97849.41;;;4.84;100.00
55066;BME280;40964;42.114;24.220;2023-03-04T05:28:54;97849.59;;;4.98;100.00
55066;BME280;40964;42.114;24.220;2023-03-04T05:31:20;97846.91;;;5.06;100.00
55066;BME280;40964;42.114;24.220;2023-03-04T05:33:45;97851.75;;;4.94;100.00
55066;BME280;40964;42.114;24.220;2023-03-04T05:36:11;97860.22;;;4.96;100.00
55066;BME280;40964;42.114;24.220;2023-03-04T05:38:37;97869.69;;;4.74;100.00
55066;BME280;40964;42.114;24.220;2023-03-04T05:41:05;97875.16;;;4.65;100.00
55066;BME280;40964;42.114;24.220;2023-03-04T05:43:31;97872.00;;;4.54;100.00
55066;BME280;40964;42.114;24.220;2023-03-04T05:46:01;97879.25;;;4.44;100.00
55066;BME280;40964;42.114;24.220;2023-03-04T05:48:27;97891.88;;;4.33;100.00
55066;BME280;40964;42.114;24.220;2023-03-04T05:50:55;97894.19;;;4.05;100.00
55066;BME280;40964;42.114;24.220;2023-03-04T05:53:20;97885.28;;;3.99;100.00
55066;BME280;40964;42.114;24.220;2023-03-04T05:55:46;97888.94;;;3.82;100.00
55066;BME280;40964;42.114;24.220;2023-03-04T05:58:12;97892.03;;;3.77;100.00
55066;BME280;40964;42.114;24.220;2023-03-04T06:00:38;97896.72;;;3.90;100.00
55066;BME280;40964;42.114;24.220;2023-03-04T06:03:03;97897.94;;;4.02;100.00
55066;BME280;40964;42.114;24.220;2023-03-04T06:05:29;97901.66;;;4.08;100.00
55066;BME280;40964;42.114;24.220;2023-03-04T06:07:54;97898.06;;;4.09;100.00
55066;BME280;40964;42.114;24.220;2023-03-04T06:10:20;97899.97;;;4.15;100.00
55066;BME280;40964;42.114;24.220;2023-03-04T06:12:46;97902.97;;;4.26;100.00
55066;BME280;40964;42.114;24.220;2023-03-04T06:15:12;97899.38;;;4.27;100.00
55066;BME280;40964;42.114;24.220;2023-03-04T06:17:38;97902.91;;;4.35;100.00
55066;BME280;40964;42.114;24.220;2023-03-04T06:20:04;97909.75;;;4.36;100.00
55066;BME280;40964;42.114;24.220;2023-03-04T06:22:32;97907.25;;;4.42;100.00
55066;BME280;40964;42.114;24.220;2023-03-04T06:24:57;97906.03;;;4.53;100.00
55066;BME280;40964;42.114;24.220;2023-03-04T06:27:23;97917.66;;;4.65;100.00
55066;BME280;40964;42.114;24.220;2023-03-04T06:29:49;97909.75;;;4.73;100.00
55066;BME280;40964;42.114;24.220;2023-03-04T06:32:14;97923.91;;;4.79;100.00
55066;BME280;40964;42.114;24.220;2023-03-04T06:34:40;97910.13;;;4.85;100.00
55066;BME280;40964;42.114;24.220;2023-03-04T06:37:05;97920.97;;;4.97;100.00
55066;BME280;40964;42.114;24.220;2023-03-04T06:39:31;97902.44;;;4.92;100.00
55066;BME280;40964;42.114;24.220;2023-03-04T06:41:57;97918.09;;;5.06;100.00
55066;BME280;40964;42.114;24.220;2023-03-04T06:44:23;97916.41;;;5.13;100.00
55066;BME280;40964;42.114;24.220;2023-03-04T06:46:48;97926.56;;;5.23;100.00
55066;BME280;40964;42.114;24.220;2023-03-04T06:49:14;97933.84;;;5.28;100.00
55066;BME280;40964;42.114;24.220;2023-03-04T06:51:39;97932.41;;;5.25;100.00
55066;BME280;40964;42.114;24.220;2023-03-04T06:54:05;97924.66;;;5.17;100.00
55066;BME280;40964;42.114;24.220;2023-03-04T06:56:30;97934.31;;;5.31;100.00
55066;BME280;40964;42.114;24.220;2023-03-04T06:58:56;97937.25;;;5.28;100.00
55066;BME280;40964;42.114;24.220;2023-03-04T07:01:23;97941.41;;;5.37;100.00
55066;BME280;40964;42.114;24.220;2023-03-04T07:03:50;97935.09;;;5.47;100.00
55066;BME280;40964;42.114;24.220;2023-03-04T07:06:18;97930.88;;;5.46;100.00
55066;BME280;40964;42.114;24.220;2023-03-04T07:08:45;97930.41;;;5.57;100.00
55066;BME280;40964;42.114;24.220;2023-03-04T07:11:11;97941.41;;;5.67;100.00
55066;BME280;40964;42.114;24.220;2023-03-04T07:13:36;97932.03;;;5.73;100.00
55066;BME280;40964;42.114;24.220;2023-03-04T07:16:06;97927.69;;;5.80;100.00
55066;BME280;40964;42.114;24.220;2023-03-04T07:18:32;97938.56;;;5.83;100.00
55066;BME280;40964;42.114;24.220;2023-03-04T07:20:57;97932.19;;;5.86;100.00
55066;BME280;40964;42.114;24.220;2023-03-04T07:23:23;97937.53;;;5.78;100.00
55066;BME280;40964;42.114;24.220;2023-03-04T07:25:49;97921.06;;;5.62;100.00
55066;BME280;40964;42.114;24.220;2023-03-04T07:28:15;97929.69;;;5.78;100.00
55066;BME280;40964;42.114;24.220;2023-03-04T07:30:41;97928.88;;;5.92;100.00
55066;BME280;40964;42.114;24.220;2023-03-04T07:33:06;97933.97;;;6.00;100.00
55066;BME280;40964;42.114;24.220;2023-03-04T07:35:32;97928.75;;;6.00;100.00
55066;BME280;40964;42.114;24.220;2023-03-04T07:37:58;97925.31;;;6.14;100.00
55066;BME280;40964;42.114;24.220;2023-03-04T07:40:23;97927.91;;;6.29;100.00
55066;BME280;40964;42.114;24.220;2023-03-04T07:42:53;97928.00;;;6.42;100.00
55066;BME280;40964;42.114;24.220;2023-03-04T07:45:20;97926.47;;;6.48;100.00
55066;BME280;40964;42.114;24.220;2023-03-04T07:47:46;97927.19;;;6.63;100.00
55066;BME280;40964;42.114;24.220;2023-03-04T07:50:12;97929.06;;;6.48;100.00
55066;BME280;40964;42.114;24.220;2023-03-04T07:52:42;97925.47;;;6.49;100.00
55066;BME280;40964;42.114;24.220;2023-03-04T07:55:09;97925.50;;;6.55;100.00
55066;BME280;40964;42.114;24.220;2023-03-04T07:57:38;97931.13;;;6.31;100.00
55066;BME280;40964;42.114;24.220;2023-03-04T08:00:04;97929.81;;;6.42;100.00
55066;BME280;40964;42.114;24.220;2023-03-04T08:02:30;97927.75;;;6.59;100.00
55066;BME280;40964;42.114;24.220;2023-03-04T08:04:55;97912.97;;;6.66;100.00
55066;BME280;40964;42.114;24.220;2023-03-04T08:07:21;97925.50;;;6.77;100.00
55066;BME280;40964;42.114;24.220;2023-03-04T08:09:47;97919.72;;;6.60;100.00
55066;BME280;40964;42.114;24.220;2023-03-04T08:12:12;97921.47;;;6.74;100.00
55066;BME280;40964;42.114;24.220;2023-03-04T08:14:38;97915.53;;;6.87;100.00
55066;BME280;40964;42.114;24.220;2023-03-04T08:17:03;97917.63;;;6.98;100.00
55066;BME280;40964;42.114;24.220;2023-03-04T08:19:29;97932.59;;;7.11;100.00
55066;BME280;40964;42.114;24.220;2023-03-04T08:21:54;97926.13;;;7.07;100.00
55066;BME280;40964;42.114;24.220;2023-03-04T08:24:20;97926.13;;;6.79;100.00
55066;BME280;40964;42.114;24.220;2023-03-04T08:26:48;97923.94;;;6.82;100.00
55066;BME280;40964;42.114;24.220;2023-03-04T08:29:18;97920.91;;;6.79;100.00
55066;BME280;40964;42.114;24.220;2023-03-04T08:31:45;97908.84;;;6.57;100.00
55066;BME280;40964;42.114;24.220;2023-03-04T08:34:12;97925.28;;;6.50;100.00
55066;BME280;40964;42.114;24.220;2023-03-04T08:36:40;97924.09;;;6.53;100.00
55066;BME280;40964;42.114;24.220;2023-03-04T08:39:07;97922.16;;;6.62;100.00
55066;BME280;40964;42.114;24.220;2023-03-04T08:41:34;97917.38;;;6.65;100.00
55066;BME280;40964;42.114;24.220;2023-03-04T08:44:00;97917.66;;;6.55;100.00
55066;BME280;40964;42.114;24.220;2023-03-04T08:46:26;97916.63;;;6.50;100.00
55066;BME280;40964;42.114;24.220;2023-03-04T08:48:51;97891.06;;;6.45;100.00
55066;BME280;40964;42.114;24.220;2023-03-04T08:51:17;97918.34;;;6.64;100.00
55066;BME280;40964;42.114;24.220;2023-03-04T08:53:43;97915.38;;;6.46;100.00
55066;BME280;40964;42.114;24.220;2023-03-04T08:56:09;97920.44;;;6.47;100.00
55066;BME280;40964;42.114;24.220;2023-03-04T08:58:35;97917.81;;;6.47;100.00
55066;BME280;40964;42.114;24.220;2023-03-04T09:01:01;97921.59;;;6.66;100.00
55066;BME280;40964;42.114;24.220;2023-03-04T09:03:28;97920.78;;;6.66;100.00
55066;BME280;40964;42.114;24.220;2023-03-04T09:05:53;97920.34;;;6.62;100.00
55066;BME280;40964;42.114;24.220;2023-03-04T09:08:19;97923.53;;;6.58;100.00
55066;BME280;40964;42.114;24.220;2023-03-04T09:10:45;97921.22;;;6.69;100.00
55066;BME280;40964;42.114;24.220;2023-03-04T09:13:11;97920.13;;;6.57;100.00
55066;BME280;40964;42.114;24.220;2023-03-04T09:15:44;97917.41;;;6.72;100.00
55066;BME280;40964;42.114;24.220;2023-03-04T09:18:10;97919.22;;;6.71;100.00
55066;BME280;40964;42.114;24.220;2023-03-04T09:20:35;97917.78;;;6.69;100.00
55066;BME280;40964;42.114;24.220;2023-03-04T09:23:01;97916.47;;;6.79;100.00
55066;BME280;40964;42.114;24.220;2023-03-04T09:25:26;97909.69;;;6.85;100.00
55066;BME280;40964;42.114;24.220;2023-03-04T09:27:52;97912.84;;;7.02;100.00
55066;BME280;40964;42.114;24.220;2023-03-04T09:30:18;97915.19;;;6.97;100.00
55066;BME280;40964;42.114;24.220;2023-03-04T09:32:43;97917.47;;;7.06;100.00
55066;BME280;40964;42.114;24.220;2023-03-04T09:35:09;97911.44;;;7.06;100.00
55066;BME280;40964;42.114;24.220;2023-03-04T09:37:35;97899.22;;;7.13;100.00
55066;BME280;40964;42.114;24.220;2023-03-04T09:40:00;97902.50;;;7.22;100.00
55066;BME280;40964;42.114;24.220;2023-03-04T09:42:31;97911.19;;;7.29;100.00
55066;BME280;40964;42.114;24.220;2023-03-04T09:44:58;97903.41;;;7.42;100.00
55066;BME280;40964;42.114;24.220;2023-03-04T09:47:24;97904.66;;;7.53;100.00
55066;BME280;40964;42.114;24.220;2023-03-04T09:49:56;97889.00;;;7.59;100.00
55066;BME280;40964;42.114;24.220;2023-03-04T09:55:24;97896.00;;;7.52;100.00
55066;BME280;40964;42.114;24.220;2023-03-04T10:03:43;97889.50;;;7.89;100.00
55066;BME280;40964;42.114;24.220;2023-03-04T10:06:18;97880.47;;;7.98;100.00
55066;BME280;40964;42.114;24.220;2023-03-04T10:11:48;97876.25;;;8.04;100.00
55066;BME280;40964;42.114;24.220;2023-03-04T10:16:59;97870.63;;;8.07;100.00
55066;BME280;40964;42.114;24.220;2023-03-04T10:19:35;97872.03;;;8.16;100.00
55066;BME280;40964;42.114;24.220;2023-03-04T10:24:48;97857.75;;;8.19;100.00
55066;BME280;40964;42.114;24.220;2023-03-04T10:27:17;97845.25;;;8.14;100.00
55066;BME280;40964;42.114;24.220;2023-03-04T10:29:43;97841.88;;;8.53;100.00
55066;BME280;40964;42.114;24.220;2023-03-04T10:32:15;97847.94;;;8.61;100.00
55066;BME280;40964;42.114;24.220;2023-03-04T10:34:41;97846.91;;;8.62;98.95
55066;BME280;40964;42.114;24.220;2023-03-04T10:37:07;97845.31;;;8.67;97.90
55066;BME280;40964;42.114;24.220;2023-03-04T10:39:43;97834.41;;;8.77;97.36
55066;BME280;40964;42.114;24.220;2023-03-04T10:44:41;97822.56;;;9.32;98.07
55066;BME280;40964;42.114;24.220;2023-03-04T10:47:09;97828.09;;;9.18;96.77
55066;BME280;40964;42.114;24.220;2023-03-04T10:49:49;97823.44;;;9.13;97.78
55066;BME280;40964;42.114;24.220;2023-03-04T10:54:53;97826.22;;;9.31;90.83
55066;BME280;40964;42.114;24.220;2023-03-04T10:57:33;97816.25;;;9.53;88.30
55066;BME280;40964;42.114;24.220;2023-03-04T11:00:00;97820.50;;;9.48;88.27
55066;BME280;40964;42.114;24.220;2023-03-04T11:02:34;97798.44;;;9.04;87.90
55066;BME280;40964;42.114;24.220;2023-03-04T11:05:20;97801.97;;;9.36;88.27
55066;BME280;40964;42.114;24.220;2023-03-04T11:07:51;97800.31;;;9.42;87.66
55066;BME280;40964;42.114;24.220;2023-03-04T11:10:19;97799.72;;;9.46;88.33
55066;BME280;40964;42.114;24.220;2023-03-04T11:13:18;97790.13;;;9.65;85.59
55066;BME280;40964;42.114;24.220;2023-03-04T11:18:27;97771.81;;;9.90;83.32
55066;BME280;40964;42.114;24.220;2023-03-04T11:20:57;97775.72;;;10.06;80.73
55066;BME280;40964;42.114;24.220;2023-03-04T11:24:03;97780.22;;;9.99;84.68
55066;BME280;40964;42.114;24.220;2023-03-04T11:26:44;97776.56;;;9.68;85.05
55066;BME280;40964;42.114;24.220;2023-03-04T11:29:21;97770.19;;;9.51;86.02
55066;BME280;40964;42.114;24.220;2023-03-04T11:31:52;97766.38;;;9.53;86.17
55066;BME280;40964;42.114;24.220;2023-03-04T11:40:02;97765.72;;;9.58;85.24
55066;BME280;40964;42.114;24.220;2023-03-04T11:51:37;97752.97;;;9.61;85.77
55066;BME280;40964;42.114;24.220;2023-03-04T11:54:33;97752.06;;;9.81;87.28
55066;BME280;40964;42.114;24.220;2023-03-04T12:05:32;97726.28;;;9.96;86.15
55066;BME280;40964;42.114;24.220;2023-03-04T12:10:52;97730.13;;;9.93;83.69
55066;BME280;40964;42.114;24.220;2023-03-04T12:36:28;97715.03;;;9.57;83.80
55066;BME280;40964;42.114;24.220;2023-03-04T12:39:18;97719.28;;;9.52;83.10
55066;BME280;40964;42.114;24.220;2023-03-04T12:44:31;97699.97;;;9.46;85.82
55066;BME280;40964;42.114;24.220;2023-03-04T12:55:28;97700.88;;;9.58;86.96
55066;BME280;40964;42.114;24.220;2023-03-04T12:57:56;97691.47;;;9.76;85.47
55066;BME280;40964;42.114;24.220;2023-03-04T13:00:46;97691.59;;;9.62;85.60
55066;BME280;40964;42.114;24.220;2023-03-04T13:06:01;97681.28;;;9.61;83.72
55066;BME280;40964;42.114;24.220;2023-03-04T13:11:32;97678.53;;;9.49;86.49
55066;BME280;40964;42.114;24.220;2023-03-04T13:16:50;97677.50;;;9.50;86.66
55066;BME280;40964;42.114;24.220;2023-03-04T13:22:32;97671.13;;;9.39;87.68
55066;BME280;40964;42.114;24.220;2023-03-04T13:25:48;97675.31;;;9.47;87.28
55066;BME280;40964;42.114;24.220;2023-03-04T13:28:05;97659.72;;;9.52;89.51
55066;BME280;40964;42.114;24.220;2023-03-04T13:54:14;97623.03;;;9.95;85.58
55066;BME280;40964;42.114;24.220;2023-03-04T13:57:26;97625.00;;;10.00;84.92
55066;BME280;40964;42.114;24.220;2023-03-04T14:00:11;97622.53;;;10.05;86.43
55066;BME280;40964;42.114;24.220;2023-03-04T14:02:36;97613.13;;;10.16;85.69
55066;BME280;40964;42.114;24.220;2023-03-04T14:05:03;97615.06;;;10.27;84.48
55066;BME280;40964;42.114;24.220;2023-03-04T14:07:32;97613.53;;;10.38;81.97
55066;BME280;40964;42.114;24.220;2023-03-04T14:12:26;97611.88;;;10.25;81.92
55066;BME280;40964;42.114;24.220;2023-03-04T14:14:58;97611.78;;;10.32;82.76
55066;BME280;40964;42.114;24.220;2023-03-04T14:17:28;97590.75;;;10.32;82.13
55066;BME280;40964;42.114;24.220;2023-03-04T14:19:55;97594.56;;;10.36;82.03
55066;BME280;40964;42.114;24.220;2023-03-04T14:25:03;97590.50;;;10.33;79.35
55066;BME280;40964;42.114;24.220;2023-03-04T14:27:32;97571.22;;;10.21;80.90
55066;BME280;40964;42.114;24.220;2023-03-04T14:30:02;97579.88;;;10.28;80.58
55066;BME280;40964;42.114;24.220;2023-03-04T14:32:28;97584.25;;;10.34;79.32
55066;BME280;40964;42.114;24.220;2023-03-04T14:35:01;97578.03;;;10.47;79.52
55066;BME280;40964;42.114;24.220;2023-03-04T14:37:41;97573.81;;;10.46;79.87
55066;BME280;40964;42.114;24.220;2023-03-04T14:40:23;97580.22;;;10.32;79.24
55066;BME280;40964;42.114;24.220;2023-03-04T14:42:56;97566.41;;;10.18;80.34
55066;BME280;40964;42.114;24.220;2023-03-04T14:45:23;97570.25;;;10.15;79.97
55066;BME280;40964;42.114;24.220;2023-03-04T14:47:53;97569.28;;;10.16;79.38
55066;BME280;40964;42.114;24.220;2023-03-04T14:50:21;97574.00;;;10.08;80.45
55066;BME280;40964;42.114;24.220;2023-03-04T14:52:49;97554.88;;;9.82;80.54
55066;BME280;40964;42.114;24.220;2023-03-04T14:55:24;97558.03;;;9.66;80.81
55066;BME280;40964;42.114;24.220;2023-03-04T14:57:52;97560.72;;;9.59;82.62
55066;BME280;40964;42.114;24.220;2023-03-04T15:02:59;97559.06;;;9.65;81.53
55066;BME280;40964;42.114;24.220;2023-03-04T15:05:28;97555.38;;;9.73;81.24